Time;durP1;ratioP1;P1;durP2;ratioP2;P2;SDS_P1;SDS_P2;PMS_P1;PMS_P2;Temp;Humidity;BMP_temperature;BMP_pressure;BME280_temperature;BME280_humidity;BME280_pressure;Samples;Min_cycle;Max_cycle;Signal;HPM_P1;HPM_P2
2023/04/15 00:00:20;;;;;;;1.60;0.70;;;7.60;99.90;;;;;;5114875;28;20432;-60
2023/04/15 00:02:48;;;;;;;1.55;0.70;;;7.60;99.90;;;;;;5115490;28;20598;-60
2023/04/15 00:05:15;;;;;;;1.40;0.70;;;7.70;99.90;;;;;;5115186;28;20845;-60
2023/04/15 00:07:42;;;;;;;1.10;0.70;;;7.70;99.90;;;;;;5115109;28;20420;-60
2023/04/15 00:10:09;;;;;;;1.02;0.60;;;7.60;99.90;;;;;;5110060;28;20438;-60
2023/04/15 00:12:36;;;;;;;0.90;0.60;;;7.70;99.90;;;;;;5095573;28;20425;-61
2023/04/15 00:15:07;;;;;;;2.10;0.70;;;7.70;99.90;;;;;;5095538;28;20845;-61
2023/04/15 00:17:34;;;;;;;1.33;0.60;;;7.60;99.90;;;;;;5095632;28;20699;-61
2023/04/15 00:20:02;;;;;;;1.10;0.70;;;7.60;99.90;;;;;;5096141;28;20426;-60
2023/04/15 00:22:29;;;;;;;1.70;0.70;;;7.60;99.90;;;;;;5096466;28;20845;-60
2023/04/15 00:24:56;;;;;;;1.40;0.70;;;7.50;99.90;;;;;;5096538;28;20430;-60
2023/04/15 00:27:24;;;;;;;1.60;0.70;;;7.50;99.90;;;;;;5096532;28;20429;-60
2023/04/15 00:29:51;;;;;;;1.55;0.60;;;7.50;99.90;;;;;;5094589;28;20469;-61
2023/04/15 00:32:20;;;;;;;1.43;0.60;;;7.50;99.90;;;;;;5094469;28;20420;-61
2023/04/15 00:34:48;;;;;;;3.20;0.68;;;7.50;99.90;;;;;;5093015;28;20436;-60
2023/04/15 00:37:15;;;;;;;1.40;0.60;;;7.50;99.90;;;;;;5096310;28;20477;-61
2023/04/15 00:39:42;;;;;;;3.20;0.70;;;7.60;99.90;;;;;;5095757;28;20426;-60
2023/04/15 00:42:10;;;;;;;1.05;0.60;;;7.60;99.90;;;;;;5096293;28;20418;-60
2023/04/15 00:44:37;;;;;;;2.25;0.70;;;7.50;99.90;;;;;;5096356;28;20426;-60
2023/04/15 00:47:05;;;;;;;1.60;0.70;;;7.40;99.90;;;;;;5096753;28;20757;-60
2023/04/15 00:49:34;;;;;;;1.30;0.75;;;7.40;99.90;;;;;;5096893;28;20434;-60
2023/04/15 00:52:01;;;;;;;1.00;0.60;;;7.30;99.90;;;;;;5096720;28;20734;-60
2023/04/15 00:54:28;;;;;;;1.30;0.70;;;7.20;99.90;;;;;;5095658;28;20448;-60
2023/04/15 00:56:55;;;;;;;1.90;0.67;;;7.10;99.90;;;;;;5095710;28;20503;-60
2023/04/15 00:59:22;;;;;;;1.30;0.70;;;7.10;99.90;;;;;;5096316;28;20422;-61
2023/04/15 01:01:50;;;;;;;1.38;0.60;;;7.10;99.90;;;;;;5095817;28;20414;-61
2023/04/15 01:04:17;;;;;;;2.70;0.70;;;7.20;99.90;;;;;;5096017;28;20422;-60
2023/04/15 01:06:46;;;;;;;1.90;0.70;;;7.20;99.90;;;;;;5096365;28;20433;-60
2023/04/15 01:09:13;;;;;;;1.42;0.70;;;7.10;99.90;;;;;;5095221;28;20727;-60
2023/04/15 01:11:40;;;;;;;1.25;0.70;;;7.10;99.90;;;;;;5094107;28;20874;-60
2023/04/15 01:14:08;;;;;;;0.90;0.65;;;7.10;99.90;;;;;;5095119;28;20417;-60
2023/04/15 01:16:38;;;;;;;1.40;0.70;;;7.10;99.90;;;;;;5095647;28;20476;-60
2023/04/15 01:19:06;;;;;;;3.03;0.70;;;7.10;99.90;;;;;;5095561;28;20508;-60
2023/04/15 01:21:33;;;;;;;1.30;0.60;;;7.10;99.90;;;;;;5096392;28;20417;-60
2023/04/15 01:24:03;;;;;;;3.03;0.60;;;7.20;99.90;;;;;;5095459;28;20424;-58
2023/04/15 01:26:32;;;;;;;1.60;0.60;;;7.30;99.90;;;;;;5095626;28;20424;-59
2023/04/15 01:28:59;;;;;;;1.20;0.60;;;7.30;99.90;;;;;;5093459;28;20494;-58
2023/04/15 01:31:26;;;;;;;1.83;0.60;;;7.30;99.90;;;;;;5092872;28;20433;-59
2023/04/15 01:33:53;;;;;;;1.90;0.80;;;7.10;99.90;;;;;;5094256;28;20425;-59
2023/04/15 01:36:20;;;;;;;2.28;0.57;;;7.00;99.90;;;;;;5095555;28;20452;-59
2023/04/15 01:38:51;;;;;;;1.70;0.60;;;6.90;99.90;;;;;;5094937;28;20741;-59
2023/04/15 01:41:22;;;;;;;1.85;0.70;;;6.80;99.90;;;;;;5095458;28;20429;-59
2023/04/15 01:43:51;;;;;;;1.90;0.80;;;6.80;99.90;;;;;;5095376;28;20422;-60
2023/04/15 01:46:18;;;;;;;1.20;0.60;;;6.80;99.90;;;;;;5094497;28;20898;-60
2023/04/15 01:48:45;;;;;;;1.05;0.70;;;6.70;99.90;;;;;;5093248;28;20418;-60
2023/04/15 01:51:12;;;;;;;2.30;0.70;;;6.70;99.90;;;;;;5093001;28;20433;-60
2023/04/15 01:53:39;;;;;;;2.30;0.70;;;6.70;99.90;;;;;;5092991;28;20417;-59
2023/04/15 01:56:07;;;;;;;0.90;0.60;;;6.70;99.90;;;;;;5094268;28;20516;-59
2023/04/15 01:58:34;;;;;;;1.70;0.70;;;6.70;99.90;;;;;;5094383;28;20715;-60
2023/04/15 02:01:03;;;;;;;2.60;0.75;;;6.80;99.90;;;;;;5094430;28;20769;-60
2023/04/15 02:03:30;;;;;;;1.37;0.70;;;6.80;99.90;;;;;;5093216;28;20489;-60
2023/04/15 02:05:57;;;;;;;1.80;0.70;;;6.80;99.90;;;;;;5091755;28;20758;-60
2023/04/15 02:08:25;;;;;;;2.70;0.60;;;6.80;99.90;;;;;;5093840;28;20418;-61
2023/04/15 02:10:52;;;;;;;1.70;0.60;;;6.80;99.90;;;;;;5093284;28;20434;-60
2023/04/15 02:13:19;;;;;;;1.20;0.70;;;6.80;99.90;;;;;;5093344;28;20516;-60
2023/04/15 02:15:51;;;;;;;1.10;0.60;;;6.80;99.90;;;;;;5094771;28;20436;-60
2023/04/15 02:18:19;;;;;;;1.90;0.70;;;6.80;99.90;;;;;;5094832;28;20417;-60
2023/04/15 02:20:47;;;;;;;1.00;0.63;;;6.80;99.90;;;;;;5095019;28;20503;-57
2023/04/15 02:23:14;;;;;;;1.50;0.65;;;6.70;99.90;;;;;;5095167;28;20479;-59
2023/04/15 02:25:41;;;;;;;1.08;0.70;;;6.80;99.90;;;;;;5094696;28;20429;-60
2023/04/15 02:28:08;;;;;;;1.20;0.70;;;6.80;99.90;;;;;;5095268;28;20422;-61
2023/04/15 02:30:35;;;;;;;0.90;0.75;;;6.80;99.90;;;;;;5095166;28;20524;-61
2023/04/15 02:33:04;;;;;;;1.50;0.70;;;6.70;99.90;;;;;;5094580;28;20425;-61
2023/04/15 02:35:32;;;;;;;1.40;0.63;;;6.70;99.90;;;;;;5094363;28;20426;-59
2023/04/15 02:37:59;;;;;;;2.08;0.70;;;6.70;99.90;;;;;;5095139;28;20414;-59
2023/04/15 02:40:26;;;;;;;2.10;0.67;;;6.70;99.90;;;;;;5094465;28;20461;-59
2023/04/15 02:42:53;;;;;;;1.10;0.70;;;6.60;99.90;;;;;;5094782;28;20424;-60
2023/04/15 02:45:23;;;;;;;1.40;0.70;;;6.60;99.90;;;;;;5094771;28;20422;-59
2023/04/15 02:47:50;;;;;;;2.10;0.70;;;6.50;99.90;;;;;;5098042;28;20798;-59
2023/04/15 02:50:17;;;;;;;0.95;0.60;;;6.50;99.90;;;;;;5098635;28;20524;-59
2023/04/15 02:52:45;;;;;;;1.88;0.60;;;6.40;99.90;;;;;;5095974;28;20424;-59
2023/04/15 02:55:13;;;;;;;1.60;0.60;;;6.30;99.90;;;;;;5098619;28;20876;-60
2023/04/15 02:57:40;;;;;;;1.75;0.60;;;6.30;99.90;;;;;;5098880;28;20420;-60
2023/04/15 03:00:10;;;;;;;1.20;0.70;;;6.30;99.90;;;;;;5097930;28;20449;-61
2023/04/15 03:02:38;;;;;;;1.80;0.70;;;6.30;99.90;;;;;;5097864;28;20709;-60
2023/04/15 03:05:06;;;;;;;1.60;0.70;;;6.30;99.90;;;;;;5099148;28;20550;-60
2023/04/15 03:07:33;;;;;;;1.30;0.60;;;6.30;99.90;;;;;;5097884;28;20892;-60
2023/04/15 03:10:02;;;;;;;2.90;0.60;;;6.40;99.90;;;;;;5097572;28;20444;-61
2023/04/15 03:12:29;;;;;;;0.80;0.50;;;6.40;99.90;;;;;;5096523;28;20482;-60
2023/04/15 03:14:56;;;;;;;0.90;0.60;;;6.40;99.90;;;;;;5096095;28;20414;-61
2023/04/15 03:17:23;;;;;;;2.00;0.70;;;6.30;99.90;;;;;;5096256;28;20989;-58
2023/04/15 03:19:50;;;;;;;2.00;0.60;;;6.30;99.90;;;;;;5097268;28;20430;-58
2023/04/15 03:22:17;;;;;;;1.20;0.60;;;6.30;99.90;;;;;;5097323;28;20413;-58
2023/04/15 03:24:44;;;;;;;1.02;0.60;;;6.20;99.90;;;;;;5097699;28;20806;-59
2023/04/15 03:27:13;;;;;;;2.08;0.70;;;6.30;99.90;;;;;;5097905;28;20417;-59
2023/04/15 03:29:40;;;;;;;1.10;0.60;;;6.30;99.90;;;;;;5097245;28;20437;-60
2023/04/15 03:32:07;;;;;;;1.20;0.63;;;6.30;99.90;;;;;;5097718;28;20436;-59
2023/04/15 03:34:34;;;;;;;1.75;0.70;;;6.40;99.90;;;;;;5097081;28;20733;-60
2023/04/15 03:37:01;;;;;;;1.02;0.60;;;6.50;99.90;;;;;;5097534;28;20805;-60
2023/04/15 03:39:28;;;;;;;2.63;0.70;;;6.60;99.90;;;;;;5096827;28;20425;-60
2023/04/15 03:41:55;;;;;;;1.47;0.60;;;6.60;99.90;;;;;;5097534;28;20424;-60
2023/04/15 03:44:24;;;;;;;2.10;0.70;;;6.60;99.90;;;;;;5097185;28;20495;-60
2023/04/15 03:46:51;;;;;;;1.23;0.60;;;6.60;99.90;;;;;;5096167;28;20553;-60
2023/04/15 03:49:18;;;;;;;1.02;0.65;;;6.50;99.90;;;;;;5096320;28;20422;-60
2023/04/15 03:51:45;;;;;;;2.00;0.90;;;6.50;99.90;;;;;;5096582;28;20533;-60
2023/04/15 03:54:14;;;;;;;1.33;0.80;;;6.50;99.90;;;;;;5095977;28;20744;-60
2023/04/15 03:56:41;;;;;;;1.23;0.80;;;6.50;99.90;;;;;;5096423;28;20518;-60
2023/04/15 03:59:08;;;;;;;1.65;0.70;;;6.50;99.90;;;;;;5096642;28;20465;-61
2023/04/15 04:01:37;;;;;;;0.82;0.60;;;6.50;99.90;;;;;;5097352;28;20422;-60
2023/04/15 04:04:04;;;;;;;1.33;0.70;;;6.50;99.90;;;;;;5096209;28;20421;-60
2023/04/15 04:06:31;;;;;;;1.10;0.60;;;6.50;99.90;;;;;;5097361;28;20421;-60
2023/04/15 04:08:58;;;;;;;1.50;0.70;;;6.50;99.90;;;;;;5098064;28;20410;-60
2023/04/15 04:11:25;;;;;;;1.23;0.60;;;6.50;99.90;;;;;;5096518;28;20430;-60
2023/04/15 04:13:52;;;;;;;2.83;0.70;;;6.50;99.90;;;;;;5097695;28;20477;-60
2023/04/15 04:16:19;;;;;;;1.90;0.70;;;6.50;99.90;;;;;;5097584;28;20442;-60
2023/04/15 04:18:48;;;;;;;1.90;0.70;;;6.40;99.90;;;;;;5097218;28;20428;-60
2023/04/15 04:21:15;;;;;;;1.15;0.70;;;6.40;99.90;;;;;;5097409;28;20426;-60
2023/04/15 04:23:42;;;;;;;1.70;0.70;;;6.30;99.90;;;;;;5096868;28;20730;-60
2023/04/15 04:26:09;;;;;;;2.17;0.70;;;6.20;99.90;;;;;;5097474;28;20855;-60
2023/04/15 04:28:38;;;;;;;1.30;0.70;;;6.20;99.90;;;;;;5097348;28;20418;-60
2023/04/15 04:31:05;;;;;;;1.10;0.70;;;6.20;99.90;;;;;;5095886;28;20480;-60
2023/04/15 04:33:32;;;;;;;1.30;0.60;;;6.10;99.90;;;;;;5092678;28;20414;-60
2023/04/15 04:36:01;;;;;;;1.35;0.63;;;6.00;99.90;;;;;;5093517;28;20422;-60
2023/04/15 04:38:28;;;;;;;2.10;0.70;;;6.00;99.90;;;;;;5094915;28;20425;-59
2023/04/15 04:40:55;;;;;;;1.85;0.63;;;6.00;99.90;;;;;;5095011;28;20426;-59
2023/04/15 04:43:22;;;;;;;2.80;0.80;;;6.00;99.90;;;;;;5091772;28;20941;-61
2023/04/15 04:45:49;;;;;;;2.10;0.70;;;5.90;99.90;;;;;;5093709;28;20425;-60
2023/04/15 04:48:16;;;;;;;2.00;0.70;;;5.90;99.90;;;;;;5094937;28;20418;-59
2023/04/15 04:50:44;;;;;;;1.20;0.60;;;6.00;99.90;;;;;;5094176;28;20430;-59
2023/04/15 04:53:12;;;;;;;1.92;0.70;;;6.00;99.90;;;;;;5094183;28;20508;-59
2023/04/15 04:55:40;;;;;;;1.20;0.60;;;6.00;99.90;;;;;;5094630;28;20429;-60
2023/04/15 04:58:07;;;;;;;1.13;0.60;;;5.90;99.90;;;;;;5094723;28;20453;-59
2023/04/15 05:00:34;;;;;;;1.20;0.70;;;5.90;99.90;;;;;;5095820;28;20876;-59
2023/04/15 05:03:01;;;;;;;1.30;0.70;;;5.90;99.90;;;;;;5095383;28;20425;-60
2023/04/15 05:05:28;;;;;;;1.90;0.70;;;5.80;99.90;;;;;;5096566;28;20425;-60
2023/04/15 05:07:55;;;;;;;1.27;0.70;;;5.90;99.90;;;;;;5096437;28;20421;-61
2023/04/15 05:10:23;;;;;;;2.00;0.70;;;5.90;99.90;;;;;;5095259;28;20430;-61
2023/04/15 05:12:51;;;;;;;3.40;1.20;;;6.00;99.90;;;;;;5095370;28;20484;-59
2023/04/15 05:15:18;;;;;;;2.10;0.68;;;6.00;99.90;;;;;;5095752;28;20430;-59
2023/04/15 05:17:45;;;;;;;1.75;0.60;;;6.00;99.90;;;;;;5094664;28;20826;-59
2023/04/15 05:20:14;;;;;;;1.30;0.68;;;6.00;99.90;;;;;;5093808;28;20434;-60
2023/04/15 05:22:41;;;;;;;1.05;0.68;;;6.00;99.90;;;;;;5094083;28;20428;-59
2023/04/15 05:25:09;;;;;;;2.20;0.60;;;6.00;99.90;;;;;;5094844;28;20504;-59
2023/04/15 05:27:37;;;;;;;1.30;0.70;;;5.90;99.90;;;;;;5093902;28;20460;-60
2023/04/15 05:30:06;;;;;;;2.00;0.70;;;5.80;99.90;;;;;;5094203;28;20432;-60
2023/04/15 05:32:33;;;;;;;1.60;0.70;;;5.80;99.90;;;;;;5094686;28;20490;-60
2023/04/15 05:35:00;;;;;;;1.70;0.90;;;5.90;99.90;;;;;;5094729;28;20430;-59
2023/04/15 05:37:27;;;;;;;1.30;0.70;;;5.90;99.90;;;;;;5094211;28;20425;-60
2023/04/15 05:39:54;;;;;;;1.77;0.90;;;6.00;99.90;;;;;;5094818;28;20440;-60
2023/04/15 05:42:21;;;;;;;2.40;1.00;;;6.10;99.90;;;;;;5095303;28;20833;-59
2023/04/15 05:44:50;;;;;;;3.10;1.00;;;6.30;99.90;;;;;;5095493;28;20429;-60
2023/04/15 05:47:17;;;;;;;2.40;0.90;;;6.40;99.90;;;;;;5094070;28;20425;-60
2023/04/15 05:49:44;;;;;;;1.70;0.75;;;6.40;99.90;;;;;;5095298;28;20852;-59
2023/04/15 05:52:11;;;;;;;1.40;0.70;;;6.40;99.90;;;;;;5095259;28;20432;-60
2023/04/15 05:54:39;;;;;;;1.15;0.70;;;6.30;99.90;;;;;;5094145;28;20433;-60
2023/04/15 05:57:06;;;;;;;1.98;0.70;;;6.30;99.90;;;;;;5094167;28;20484;-60
2023/04/15 05:59:33;;;;;;;1.77;0.70;;;6.30;99.90;;;;;;5094331;28;20424;-60
2023/04/15 06:02:02;;;;;;;3.90;1.10;;;6.30;99.90;;;;;;5094749;28;20817;-60
2023/04/15 06:04:29;;;;;;;1.00;0.75;;;6.30;99.90;;;;;;5095015;28;20422;-59
2023/04/15 06:06:56;;;;;;;1.20;0.70;;;6.30;99.90;;;;;;5093987;28;20759;-61
2023/04/15 06:09:23;;;;;;;1.30;0.70;;;6.40;99.90;;;;;;5094004;28;20438;-62
2023/04/15 06:11:52;;;;;;;1.70;0.70;;;6.50;99.90;;;;;;5094619;28;20429;-62
2023/04/15 06:14:19;;;;;;;1.20;0.70;;;6.60;99.90;;;;;;5093961;28;20434;-62
2023/04/15 06:16:46;;;;;;;1.40;0.70;;;6.70;99.90;;;;;;5093396;28;20821;-62
2023/04/15 06:19:15;;;;;;;2.25;0.90;;;6.70;99.90;;;;;;5114022;28;20419;-62
2023/04/15 06:21:42;;;;;;;1.85;0.90;;;6.90;99.90;;;;;;5114828;28;20534;-62
2023/04/15 06:24:09;;;;;;;2.17;0.90;;;7.00;99.90;;;;;;5114151;28;20866;-62
2023/04/15 06:26:36;;;;;;;2.78;0.90;;;7.10;99.90;;;;;;5112815;28;21110;-62
2023/04/15 06:29:03;;;;;;;1.53;0.80;;;7.40;99.90;;;;;;5113750;28;20416;-61
2023/04/15 06:31:30;;;;;;;3.13;0.90;;;7.50;99.90;;;;;;5112737;28;20431;-63
2023/04/15 06:33:57;;;;;;;1.30;0.70;;;7.90;99.90;;;;;;5112450;28;20732;-62
2023/04/15 06:36:26;;;;;;;1.60;0.70;;;7.90;99.90;;;;;;5114464;28;20427;-63
2023/04/15 06:38:53;;;;;;;1.40;0.70;;;7.90;99.90;;;;;;5112357;28;20408;-62
2023/04/15 06:41:20;;;;;;;2.03;0.80;;;8.00;99.90;;;;;;5112874;28;20420;-62
2023/04/15 06:43:47;;;;;;;1.15;0.80;;;7.90;99.90;;;;;;5113391;28;20420;-62
2023/04/15 06:46:15;;;;;;;1.60;0.90;;;7.80;99.90;;;;;;5112900;28;20424;-62
2023/04/15 06:48:42;;;;;;;1.30;0.70;;;7.80;99.90;;;;;;5111350;28;20740;-63
2023/04/15 06:51:09;;;;;;;2.33;0.80;;;8.00;99.90;;;;;;5112162;28;20432;-63
2023/04/15 06:53:39;;;;;;;1.50;0.70;;;8.50;99.90;;;;;;5113271;28;20442;-63
2023/04/15 06:56:08;;;;;;;1.30;0.90;;;8.70;99.90;;;;;;5112687;28;20866;-64
2023/04/15 06:58:35;;;;;;;2.20;1.00;;;9.00;99.90;;;;;;5112928;28;20832;-63
2023/04/15 07:01:03;;;;;;;1.67;1.10;;;9.20;99.90;;;;;;5113893;28;20866;-63
2023/04/15 07:03:30;;;;;;;3.00;1.10;;;9.30;99.90;;;;;;5114640;28;20420;-65
2023/04/15 07:05:57;;;;;;;2.50;1.00;;;9.50;99.90;;;;;;5115131;28;20431;-63
2023/04/15 07:08:24;;;;;;;1.95;1.20;;;9.20;99.90;;;;;;5114185;28;20505;-62
2023/04/15 07:10:53;;;;;;;2.78;1.23;;;8.90;99.90;;;;;;5114843;28;20424;-62
2023/04/15 07:13:20;;;;;;;1.88;1.02;;;8.60;99.90;;;;;;5114324;28;20440;-62
2023/04/15 07:15:47;;;;;;;4.40;1.30;;;8.40;99.90;;;;;;5099623;28;20515;-63
2023/04/15 07:18:14;;;;;;;2.60;1.00;;;8.30;99.90;;;;;;5093150;28;20418;-63
2023/04/15 07:20:41;;;;;;;2.80;1.20;;;8.20;99.90;;;;;;5091268;28;20429;-63
2023/04/15 07:23:08;;;;;;;2.50;0.90;;;8.30;99.90;;;;;;5093447;28;20414;-63
2023/04/15 07:25:35;;;;;;;2.08;0.90;;;8.80;99.90;;;;;;5094215;28;20430;-63
2023/04/15 07:28:04;;;;;;;1.98;0.90;;;9.30;99.90;;;;;;5093934;28;20418;-63
2023/04/15 07:30:31;;;;;;;3.10;0.90;;;9.90;99.90;;;;;;5094398;28;20425;-64
2023/04/15 07:32:59;;;;;;;2.35;0.90;;;10.50;99.90;;;;;;5094401;28;20434;-63
2023/04/15 07:35:26;;;;;;;2.20;0.90;;;10.70;99.90;;;;;;5097371;28;20741;-64
2023/04/15 07:37:53;;;;;;;2.70;0.80;;;10.70;99.90;;;;;;5096782;28;20437;-63
2023/04/15 07:40:21;;;;;;;1.10;0.90;;;10.50;99.90;;;;;;5095487;28;20433;-63
2023/04/15 07:42:48;;;;;;;3.08;0.90;;;10.40;99.90;;;;;;5096181;28;20418;-63
2023/04/15 07:45:17;;;;;;;1.60;0.80;;;10.40;99.90;;;;;;5095405;28;20727;-63
2023/04/15 07:47:44;;;;;;;1.20;0.80;;;10.50;99.90;;;;;;5095697;28;20418;-63
2023/04/15 07:50:11;;;;;;;2.40;0.90;;;10.80;99.90;;;;;;5096616;28;20475;-63
2023/04/15 07:52:39;;;;;;;2.20;1.00;;;10.90;99.90;;;;;;5095754;28;20841;-63
2023/04/15 07:55:07;;;;;;;1.40;0.80;;;10.90;99.90;;;;;;5096358;28;20426;-63
2023/04/15 07:57:34;;;;;;;1.70;0.90;;;10.80;99.90;;;;;;5095770;28;20510;-63
2023/04/15 08:00:02;;;;;;;1.52;1.00;;;10.50;99.90;;;;;;5108367;28;20432;-63
2023/04/15 08:02:31;;;;;;;2.00;1.00;;;10.50;99.90;;;;;;5114404;28;20424;-63
2023/04/15 08:04:58;;;;;;;1.95;0.90;;;10.50;99.90;;;;;;5117282;28;20424;-63
2023/04/15 08:07:26;;;;;;;2.10;0.80;;;10.70;99.90;;;;;;5106344;28;20426;-63
2023/04/15 08:09:53;;;;;;;2.20;0.90;;;10.70;99.90;;;;;;5102264;28;20438;-62
2023/04/15 08:12:20;;;;;;;1.70;1.00;;;10.70;99.90;;;;;;5098664;28;20436;-63
2023/04/15 08:14:47;;;;;;;2.55;1.00;;;10.80;99.90;;;;;;5095905;28;20482;-63
2023/04/15 08:17:14;;;;;;;2.80;0.95;;;11.00;99.90;;;;;;5096266;28;20418;-63
2023/04/15 08:19:43;;;;;;;2.72;1.40;;;11.20;99.90;;;;;;5095257;28;20437;-62
2023/04/15 08:22:11;;;;;;;2.22;0.90;;;11.20;99.90;;;;;;5103172;28;20426;-63
2023/04/15 08:24:38;;;;;;;4.75;1.20;;;11.40;99.90;;;;;;5095467;28;20448;-65
2023/04/15 08:27:06;;;;;;;2.25;1.20;;;11.70;99.90;;;;;;5094121;28;20677;-62
2023/04/15 08:29:33;;;;;;;1.73;0.95;;;11.80;99.90;;;;;;5105711;28;20831;-63
2023/04/15 08:32:01;;;;;;;3.30;1.20;;;11.60;99.90;;;;;;5097147;28;20888;-63
2023/04/15 08:34:29;;;;;;;1.20;0.90;;;11.70;99.90;;;;;;5107802;28;20434;-63
2023/04/15 08:36:58;;;;;;;1.90;1.00;;;11.80;99.90;;;;;;5115072;28;20444;-63
2023/04/15 08:39:25;;;;;;;1.63;0.90;;;11.80;99.90;;;;;;5115285;28;20424;-64
2023/04/15 08:42:00;;;;;;;1.95;0.90;;;12.00;99.90;;;;;;5097565;28;20877;-63
2023/04/15 08:44:31;;;;;;;3.00;1.00;;;12.20;99.90;;;;;;5095109;28;20432;-63
2023/04/15 08:47:02;;;;;;;2.38;0.90;;;12.50;99.90;;;;;;5095168;28;20429;-63
2023/04/15 08:49:29;;;;;;;1.60;0.90;;;12.80;99.90;;;;;;5094772;28;20510;-63
2023/04/15 08:52:00;;;;;;;2.08;0.80;;;12.60;99.90;;;;;;5096632;28;20426;-64
2023/04/15 08:54:28;;;;;;;1.40;0.80;;;13.00;99.90;;;;;;5096263;28;20538;-63
2023/04/15 08:56:55;;;;;;;1.80;0.90;;;13.40;99.90;;;;;;5094237;28;20422;-62
2023/04/15 08:59:22;;;;;;;3.10;0.97;;;13.60;99.90;;;;;;5099030;28;20424;-64
2023/04/15 09:01:50;;;;;;;2.20;0.70;;;13.70;99.90;;;;;;5114421;28;20431;-64
2023/04/15 09:04:18;;;;;;;1.17;0.70;;;14.00;99.90;;;;;;5114011;28;20416;-63
2023/04/15 09:06:47;;;;;;;1.00;0.73;;;14.00;99.90;;;;;;5106958;28;20445;-63
2023/04/15 09:09:16;;;;;;;0.90;0.60;;;14.40;99.90;;;;;;5094973;28;20445;-65
2023/04/15 09:11:43;;;;;;;1.70;0.70;;;14.40;99.90;;;;;;5095423;28;20757;-62
2023/04/15 09:14:10;;;;;;;0.90;0.50;;;14.10;99.90;;;;;;5094800;28;20425;-64
2023/04/15 09:17:01;;;;;;;1.00;0.40;;;14.30;99.90;;;;;;5097411;28;20430;-62
2023/04/15 09:19:30;;;;;;;0.93;0.50;;;14.50;99.90;;;;;;5079259;28;20434;-63
2023/04/15 09:22:00;;;;;;;1.20;0.50;;;14.50;99.90;;;;;;5102223;28;20445;-63
2023/04/15 09:24:38;;;;;;;0.98;0.50;;;14.50;99.90;;;;;;5106882;28;20429;-63
2023/04/15 09:27:05;;;;;;;2.00;0.60;;;14.60;99.90;;;;;;5094366;28;20450;-63
2023/04/15 09:29:32;;;;;;;0.80;0.50;;;14.70;99.90;;;;;;5095096;28;20436;-62
2023/04/15 09:32:13;;;;;;;1.10;0.60;;;14.50;99.90;;;;;;5094961;28;20444;-64
2023/04/15 09:34:40;;;;;;;1.27;0.70;;;14.70;99.90;;;;;;5100938;28;20432;-62
2023/04/15 09:37:09;;;;;;;1.30;0.50;;;15.00;99.90;;;;;;5097471;28;20867;-62
2023/04/15 09:39:50;;;;;;;1.38;0.60;;;15.10;99.90;;;;;;5092303;28;20434;-62
2023/04/15 09:42:23;;;;;;;1.20;0.60;;;14.80;99.90;;;;;;5094097;28;20414;-63
2023/04/15 09:44:50;;;;;;;0.80;0.50;;;15.00;99.90;;;;;;5103673;28;20434;-63
2023/04/15 09:47:30;;;;;;;0.80;0.50;;;15.00;99.90;;;;;;5100275;28;20843;-62
2023/04/15 09:49:58;;;;;;;1.30;0.60;;;15.00;99.90;;;;;;5093956;28;20426;-63
2023/04/15 09:52:26;;;;;;;1.00;0.60;;;15.10;99.90;;;;;;5092350;28;20429;-63
2023/04/15 09:54:55;;;;;;;1.00;0.50;;;15.40;99.90;;;;;;5096033;28;20438;-62
2023/04/15 09:57:23;;;;;;;1.10;0.60;;;15.30;99.90;;;;;;5101013;28;20491;-62
2023/04/15 09:59:50;;;;;;;1.10;0.55;;;15.40;99.90;;;;;;5091787;28;20425;-62
2023/04/15 10:02:20;;;;;;;0.90;0.60;;;15.30;99.90;;;;;;5101981;28;20437;-63
2023/04/15 10:04:49;;;;;;;0.90;0.50;;;15.40;99.90;;;;;;5099547;28;20425;-63
2023/04/15 10:07:19;;;;;;;0.90;0.50;;;15.30;99.90;;;;;;5092752;28;20714;-62
2023/04/15 10:09:48;;;;;;;2.10;0.50;;;15.10;99.90;;;;;;5090218;28;20441;-63
2023/04/15 10:12:20;;;;;;;0.98;0.60;;;15.10;99.90;;;;;;5089978;28;20437;-62
2023/04/15 10:14:53;;;;;;;0.80;0.50;;;15.20;99.90;;;;;;5097499;28;20432;-62
2023/04/15 10:17:23;;;;;;;1.05;0.60;;;15.30;98.60;;;;;;5109155;28;20424;-61
2023/04/15 10:19:53;;;;;;;1.20;0.57;;;15.20;97.50;;;;;;5099508;28;20883;-62
2023/04/15 10:22:20;;;;;;;0.90;0.50;;;15.20;99.10;;;;;;5105639;28;20809;-62
2023/04/15 10:24:48;;;;;;;1.13;0.63;;;15.30;97.90;;;;;;5113944;28;20435;-62
2023/04/15 10:27:18;;;;;;;1.17;0.50;;;15.30;97.30;;;;;;5106860;28;20469;-63
2023/04/15 10:29:46;;;;;;;1.10;0.60;;;15.20;96.50;;;;;;5093718;28;20429;-62
2023/04/15 10:32:13;;;;;;;2.00;0.57;;;15.30;97.20;;;;;;5090430;28;20421;-63
2023/04/15 10:34:41;;;;;;;1.30;0.70;;;15.40;96.20;;;;;;5091241;28;20877;-62
2023/04/15 10:37:10;;;;;;;1.40;0.70;;;15.50;97.40;;;;;;5092917;28;20833;-63
2023/04/15 10:39:44;;;;;;;1.60;0.60;;;15.90;97.60;;;;;;5092724;28;20441;-62
2023/04/15 10:42:12;;;;;;;4.05;1.60;;;16.00;95.40;;;;;;5103685;28;20510;-63
2023/04/15 10:44:43;;;;;;;2.42;0.70;;;16.10;95.90;;;;;;5095665;28;20443;-63
2023/04/15 10:47:12;;;;;;;2.33;0.70;;;16.30;95.50;;;;;;5093976;28;20424;-63
2023/04/15 10:49:47;;;;;;;1.20;0.70;;;16.30;95.30;;;;;;5098567;28;20439;-63
2023/04/15 10:52:16;;;;;;;1.98;0.70;;;16.30;95.70;;;;;;5106866;28;20878;-58
2023/04/15 10:54:44;;;;;;;2.03;0.70;;;16.60;95.30;;;;;;5094507;28;20433;-59
2023/04/15 10:57:17;;;;;;;1.70;0.70;;;16.50;95.10;;;;;;5097725;28;20420;-59
2023/04/15 11:00:12;;;;;;;2.17;0.70;;;16.20;95.30;;;;;;5102002;28;20430;-58
2023/04/15 11:02:44;;;;;;;1.00;0.70;;;15.90;94.60;;;;;;5101089;28;20428;-59
2023/04/15 11:05:12;;;;;;;1.30;0.60;;;15.60;93.10;;;;;;5102168;28;20462;-59
2023/04/15 11:07:47;;;;;;;0.95;0.60;;;15.30;94.10;;;;;;5092493;28;20422;-59
2023/04/15 11:10:54;;;;;;;1.02;0.60;;;15.10;94.90;;;;;;5104708;28;20896;-58
2023/04/15 11:13:24;;;;;;;3.28;0.70;;;14.90;96.00;;;;;;5098580;28;20435;-57
2023/04/15 11:16:02;;;;;;;1.30;0.60;;;14.70;95.50;;;;;;5095673;28;20486;-58
2023/04/15 11:18:31;;;;;;;1.35;0.60;;;14.70;96.20;;;;;;5099798;28;20438;-59
2023/04/15 11:21:03;;;;;;;0.90;0.70;;;14.80;95.80;;;;;;5096045;28;20425;-59
2023/04/15 11:23:33;;;;;;;1.70;0.60;;;14.90;96.40;;;;;;5106503;28;20436;-59
2023/04/15 11:26:01;;;;;;;1.03;0.60;;;15.60;96.50;;;;;;5097286;27;20877;-58
2023/04/15 11:28:30;;;;;;;0.88;0.60;;;16.30;95.10;;;;;;5101020;28;20765;-62
2023/04/15 11:31:05;;;;;;;1.42;0.70;;;16.50;93.40;;;;;;5101829;27;20463;-57
2023/04/15 11:33:32;;;;;;;0.90;0.60;;;16.90;92.00;;;;;;5101160;28;20427;-57
2023/04/15 11:35:59;;;;;;;2.38;0.82;;;17.00;90.30;;;;;;5101168;28;20447;-58
2023/04/15 11:38:26;;;;;;;0.98;0.60;;;16.70;90.20;;;;;;5095301;28;20433;-57
2023/04/15 11:40:54;;;;;;;1.50;0.60;;;16.80;90.00;;;;;;5095206;28;20444;-58
2023/04/15 11:43:23;;;;;;;1.20;0.70;;;16.70;89.80;;;;;;5094544;28;20481;-59
2023/04/15 11:45:55;;;;;;;1.42;0.70;;;16.60;90.10;;;;;;5092312;28;20759;-58
2023/04/15 11:48:25;;;;;;;0.90;0.70;;;16.20;91.50;;;;;;5102983;28;20457;-58
2023/04/15 11:50:56;;;;;;;1.48;0.70;;;15.70;94.40;;;;;;5101563;28;20452;-60
2023/04/15 11:53:24;;;;;;;1.60;0.90;;;15.60;96.20;;;;;;5097802;28;20437;-60
2023/04/15 11:55:53;;;;;;;1.00;0.70;;;15.50;97.90;;;;;;5106906;28;20481;-61
2023/04/15 11:58:22;;;;;;;3.30;0.70;;;15.50;99.80;;;;;;5099435;28;20433;-60
2023/04/15 12:00:52;;;;;;;2.00;0.70;;;15.40;99.80;;;;;;5095086;28;20418;-60
2023/04/15 12:03:26;;;;;;;1.40;0.70;;;15.60;99.90;;;;;;5100913;28;20451;-60
2023/04/15 12:06:20;;;;;;;1.10;0.80;;;15.50;98.80;;;;;;5104146;28;20460;-59
2023/04/15 12:09:00;;;;;;;1.90;0.90;;;15.60;97.90;;;;;;5103137;28;20481;-59
2023/04/15 12:11:33;;;;;;;1.98;0.60;;;15.80;97.80;;;;;;5096618;28;20414;-60
2023/04/15 12:14:05;;;;;;;1.35;0.70;;;15.90;97.20;;;;;;5099291;28;20439;-66
2023/04/15 12:16:34;;;;;;;2.00;0.70;;;16.00;96.10;;;;;;5103777;28;20470;-67
2023/04/15 12:19:10;;;;;;;1.25;0.70;;;16.00;94.10;;;;;;5095991;28;20465;-66
2023/04/15 12:21:40;;;;;;;1.40;0.70;;;16.10;93.60;;;;;;5095633;28;20874;-67
2023/04/15 12:24:10;;;;;;;1.90;0.80;;;16.20;93.20;;;;;;5101754;28;20418;-66
2023/04/15 12:26:43;;;;;;;0.90;0.60;;;16.20;93.30;;;;;;5105094;28;20440;-66
2023/04/15 12:29:11;;;;;;;1.20;0.70;;;16.00;93.10;;;;;;5094849;28;20529;-66
2023/04/15 12:31:47;;;;;;;1.10;0.80;;;16.10;94.00;;;;;;5105354;28;20736;-67
2023/04/15 12:34:18;;;;;;;2.15;0.60;;;16.10;94.00;;;;;;5093953;28;20430;-66
2023/04/15 12:36:45;;;;;;;1.10;0.60;;;15.90;96.10;;;;;;5112095;28;20420;-66
2023/04/15 12:39:13;;;;;;;2.20;0.63;;;15.50;98.10;;;;;;5097126;28;20788;-65
2023/04/15 12:41:40;;;;;;;1.20;0.60;;;14.70;99.90;;;;;;5100670;28;20801;-66
2023/04/15 12:44:08;;;;;;;0.90;0.60;;;14.70;99.90;;;;;;5095551;28;20432;-66
2023/04/15 12:46:35;;;;;;;1.23;0.70;;;14.40;99.90;;;;;;5099492;28;20775;-65
2023/04/15 12:49:02;;;;;;;1.10;0.70;;;13.90;99.90;;;;;;5097246;28;20428;-65
2023/04/15 12:51:31;;;;;;;1.20;0.70;;;13.70;99.90;;;;;;5105385;28;20426;-65
2023/04/15 12:53:58;;;;;;;2.30;0.70;;;13.40;99.90;;;;;;5103512;28;20853;-66
2023/04/15 12:56:26;;;;;;;1.10;0.70;;;13.20;99.90;;;;;;5104647;28;20422;-66
2023/04/15 12:58:54;;;;;;;1.02;0.80;;;12.90;99.90;;;;;;5095024;28;20445;-67